sensor_id;sensor_type;location;lat;lon;timestamp;P1;durP1;ratioP1;P2;durP2;ratioP2
67528;SDS011;54366;51.980;5.856;2022-08-01T00:01:08;12.82;;;9.27;;
67528;SDS011;54366;51.980;5.856;2022-08-01T00:03:35;10.98;;;8.52;;
67528;SDS011;54366;51.980;5.856;2022-08-01T00:06:01;8.57;;;7.32;;
67528;SDS011;54366;51.980;5.856;2022-08-01T00:08:27;9.75;;;7.50;;
67528;SDS011;54366;51.980;5.856;2022-08-01T00:10:53;6.85;;;6.18;;
67528;SDS011;54366;51.980;5.856;2022-08-01T00:13:19;9.35;;;7.70;;
67528;SDS011;54366;51.980;5.856;2022-08-01T00:15:45;9.07;;;7.88;;
67528;SDS011;54366;51.980;5.856;2022-08-01T00:18:12;9.20;;;7.43;;
67528;SDS011;54366;51.980;5.856;2022-08-01T00:20:38;11.55;;;8.13;;
67528;SDS011;54366;51.980;5.856;2022-08-01T00:23:04;10.32;;;8.77;;
67528;SDS011;54366;51.980;5.856;2022-08-01T00:25:30;9.57;;;8.57;;
67528;SDS011;54366;51.980;5.856;2022-08-01T00:27:56;8.73;;;7.93;;
67528;SDS011;54366;51.980;5.856;2022-08-01T00:30:23;14.45;;;12.43;;
67528;SDS011;54366;51.980;5.856;2022-08-01T00:32:49;12.23;;;11.02;;
67528;SDS011;54366;51.980;5.856;2022-08-01T00:35:15;11.80;;;9.82;;
67528;SDS011;54366;51.980;5.856;2022-08-01T00:37:41;8.43;;;7.63;;
67528;SDS011;54366;51.980;5.856;2022-08-01T00:40:08;10.82;;;9.82;;
67528;SDS011;54366;51.980;5.856;2022-08-01T00:42:34;9.85;;;8.95;;
67528;SDS011;54366;51.980;5.856;2022-08-01T00:45:00;13.90;;;12.38;;
67528;SDS011;54366;51.980;5.856;2022-08-01T00:47:26;11.43;;;9.88;;
67528;SDS011;54366;51.980;5.856;2022-08-01T00:49:53;11.75;;;10.40;;
67528;SDS011;54366;51.980;5.856;2022-08-01T00:52:19;11.95;;;10.75;;
67528;SDS011;54366;51.980;5.856;2022-08-01T00:54:45;10.63;;;9.63;;
67528;SDS011;54366;51.980;5.856;2022-08-01T00:57:11;11.18;;;10.10;;
67528;SDS011;54366;51.980;5.856;2022-08-01T00:59:38;11.02;;;9.93;;
67528;SDS011;54366;51.980;5.856;2022-08-01T01:02:05;9.95;;;8.93;;
67528;SDS011;54366;51.980;5.856;2022-08-01T01:04:31;9.77;;;8.88;;
67528;SDS011;54366;51.980;5.856;2022-08-01T01:09:42;9.25;;;8.35;;
67528;SDS011;54366;51.980;5.856;2022-08-01T01:15:02;7.72;;;7.03;;
67528;SDS011;54366;51.980;5.856;2022-08-01T01:17:47;6.72;;;6.13;;
67528;SDS011;54366;51.980;5.856;2022-08-01T01:20:18;7.30;;;6.43;;
67528;SDS011;54366;51.980;5.856;2022-08-01T01:22:57;7.22;;;6.53;;
67528;SDS011;54366;51.980;5.856;2022-08-01T01:30:56;6.90;;;6.22;;
67528;SDS011;54366;51.980;5.856;2022-08-01T01:33:25;6.85;;;6.25;;
67528;SDS011;54366;51.980;5.856;2022-08-01T01:35:56;6.22;;;5.63;;
67528;SDS011;54366;51.980;5.856;2022-08-01T01:38:29;6.75;;;6.05;;
67528;SDS011;54366;51.980;5.856;2022-08-01T01:40:59;5.45;;;4.95;;
67528;SDS011;54366;51.980;5.856;2022-08-01T01:43:27;6.13;;;5.40;;
67528;SDS011;54366;51.980;5.856;2022-08-01T01:45:55;5.70;;;5.10;;
67528;SDS011;54366;51.980;5.856;2022-08-01T01:48:22;5.18;;;4.68;;
67528;SDS011;54366;51.980;5.856;2022-08-01T01:50:49;4.80;;;4.30;;
67528;SDS011;54366;51.980;5.856;2022-08-01T01:53:18;5.88;;;5.28;;
67528;SDS011;54366;51.980;5.856;2022-08-01T01:55:48;5.88;;;5.15;;
67528;SDS011;54366;51.980;5.856;2022-08-01T01:58:17;5.15;;;4.65;;
67528;SDS011;54366;51.980;5.856;2022-08-01T02:00:46;4.70;;;4.30;;
67528;SDS011;54366;51.980;5.856;2022-08-01T02:03:14;6.28;;;5.22;;
67528;SDS011;54366;51.980;5.856;2022-08-01T02:05:41;5.43;;;4.93;;
67528;SDS011;54366;51.980;5.856;2022-08-01T02:08:09;5.50;;;4.90;;
67528;SDS011;54366;51.980;5.856;2022-08-01T02:10:37;5.78;;;5.07;;
67528;SDS011;54366;51.980;5.856;2022-08-01T02:13:04;7.28;;;5.50;;
67528;SDS011;54366;51.980;5.856;2022-08-01T02:15:36;5.43;;;4.68;;
67528;SDS011;54366;51.980;5.856;2022-08-01T02:18:03;5.88;;;4.55;;
67528;SDS011;54366;51.980;5.856;2022-08-01T02:20:32;7.88;;;5.40;;
67528;SDS011;54366;51.980;5.856;2022-08-01T02:23:10;6.35;;;5.50;;
67528;SDS011;54366;51.980;5.856;2022-08-01T02:25:39;6.10;;;4.78;;
67528;SDS011;54366;51.980;5.856;2022-08-01T02:28:15;6.45;;;4.85;;
67528;SDS011;54366;51.980;5.856;2022-08-01T02:30:46;7.13;;;5.32;;
67528;SDS011;54366;51.980;5.856;2022-08-01T02:33:18;6.38;;;5.15;;
67528;SDS011;54366;51.980;5.856;2022-08-01T02:35:54;7.32;;;5.80;;
67528;SDS011;54366;51.980;5.856;2022-08-01T02:38:24;6.88;;;5.70;;
67528;SDS011;54366;51.980;5.856;2022-08-01T02:40:55;6.45;;;5.65;;
67528;SDS011;54366;51.980;5.856;2022-08-01T02:43:23;6.28;;;5.43;;
67528;SDS011;54366;51.980;5.856;2022-08-01T02:45:56;7.72;;;5.95;;
67528;SDS011;54366;51.980;5.856;2022-08-01T02:48:25;6.97;;;5.65;;
67528;SDS011;54366;51.980;5.856;2022-08-01T02:50:55;8.07;;;6.47;;
67528;SDS011;54366;51.980;5.856;2022-08-01T02:53:24;5.65;;;5.05;;
67528;SDS011;54366;51.980;5.856;2022-08-01T02:55:52;5.72;;;4.22;;
67528;SDS011;54366;51.980;5.856;2022-08-01T02:58:20;9.57;;;6.40;;
67528;SDS011;54366;51.980;5.856;2022-08-01T03:00:49;7.50;;;5.70;;
67528;SDS011;54366;51.980;5.856;2022-08-01T03:03:16;7.03;;;5.50;;
67528;SDS011;54366;51.980;5.856;2022-08-01T03:05:43;5.90;;;4.70;;
67528;SDS011;54366;51.980;5.856;2022-08-01T03:08:11;6.18;;;4.75;;
67528;SDS011;54366;51.980;5.856;2022-08-01T03:10:39;7.13;;;5.18;;
67528;SDS011;54366;51.980;5.856;2022-08-01T03:13:08;5.95;;;4.45;;
67528;SDS011;54366;51.980;5.856;2022-08-01T03:15:37;6.07;;;5.30;;
67528;SDS011;54366;51.980;5.856;2022-08-01T03:18:06;4.85;;;4.35;;
67528;SDS011;54366;51.980;5.856;2022-08-01T03:20:34;5.53;;;5.03;;
67528;SDS011;54366;51.980;5.856;2022-08-01T03:23:02;6.75;;;5.57;;
67528;SDS011;54366;51.980;5.856;2022-08-01T03:25:31;6.72;;;5.97;;
67528;SDS011;54366;51.980;5.856;2022-08-01T03:28:01;6.00;;;5.40;;
67528;SDS011;54366;51.980;5.856;2022-08-01T03:30:29;6.22;;;4.93;;
67528;SDS011;54366;51.980;5.856;2022-08-01T03:32:58;5.75;;;5.13;;
67528;SDS011;54366;51.980;5.856;2022-08-01T03:35:33;5.28;;;4.05;;
67528;SDS011;54366;51.980;5.856;2022-08-01T03:38:03;4.70;;;3.97;;
67528;SDS011;54366;51.980;5.856;2022-08-01T03:40:35;5.45;;;4.80;;
67528;SDS011;54366;51.980;5.856;2022-08-01T03:43:10;5.88;;;4.93;;
67528;SDS011;54366;51.980;5.856;2022-08-01T03:45:41;4.63;;;3.78;;
67528;SDS011;54366;51.980;5.856;2022-08-01T03:48:14;3.45;;;3.10;;
67528;SDS011;54366;51.980;5.856;2022-08-01T03:50:44;4.25;;;3.85;;
67528;SDS011;54366;51.980;5.856;2022-08-01T03:53:13;3.88;;;3.17;;
67528;SDS011;54366;51.980;5.856;2022-08-01T03:55:41;3.83;;;3.17;;
67528;SDS011;54366;51.980;5.856;2022-08-01T03:58:09;2.85;;;2.53;;
67528;SDS011;54366;51.980;5.856;2022-08-01T04:00:36;3.40;;;3.10;;
67528;SDS011;54366;51.980;5.856;2022-08-01T04:03:05;2.85;;;2.28;;
67528;SDS011;54366;51.980;5.856;2022-08-01T04:05:33;4.03;;;3.10;;
67528;SDS011;54366;51.980;5.856;2022-08-01T04:08:01;3.33;;;3.03;;
67528;SDS011;54366;51.980;5.856;2022-08-01T04:10:28;3.83;;;3.53;;
67528;SDS011;54366;51.980;5.856;2022-08-01T04:12:55;4.03;;;3.50;;
67528;SDS011;54366;51.980;5.856;2022-08-01T04:15:21;4.70;;;3.50;;
67528;SDS011;54366;51.980;5.856;2022-08-01T04:17:47;4.43;;;3.97;;
67528;SDS011;54366;51.980;5.856;2022-08-01T04:20:13;4.60;;;3.60;;
67528;SDS011;54366;51.980;5.856;2022-08-01T04:22:41;3.22;;;2.92;;
67528;SDS011;54366;51.980;5.856;2022-08-01T04:25:15;3.55;;;3.22;;
67528;SDS011;54366;51.980;5.856;2022-08-01T04:27:50;3.58;;;3.28;;
67528;SDS011;54366;51.980;5.856;2022-08-01T04:30:23;4.93;;;3.72;;
67528;SDS011;54366;51.980;5.856;2022-08-01T04:32:53;3.33;;;3.03;;
67528;SDS011;54366;51.980;5.856;2022-08-01T04:35:22;4.43;;;4.03;;
67528;SDS011;54366;51.980;5.856;2022-08-01T04:37:50;3.45;;;3.15;;
67528;SDS011;54366;51.980;5.856;2022-08-01T04:40:17;4.93;;;4.35;;
67528;SDS011;54366;51.980;5.856;2022-08-01T04:42:47;6.50;;;5.78;;
67528;SDS011;54366;51.980;5.856;2022-08-01T04:45:15;5.20;;;4.70;;
67528;SDS011;54366;51.980;5.856;2022-08-01T04:47:42;4.60;;;4.20;;
67528;SDS011;54366;51.980;5.856;2022-08-01T04:50:09;3.53;;;3.22;;
67528;SDS011;54366;51.980;5.856;2022-08-01T04:52:37;3.17;;;2.80;;
67528;SDS011;54366;51.980;5.856;2022-08-01T04:55:04;4.35;;;3.95;;
67528;SDS011;54366;51.980;5.856;2022-08-01T04:57:37;4.82;;;4.30;;
67528;SDS011;54366;51.980;5.856;2022-08-01T05:00:06;4.47;;;3.53;;
67528;SDS011;54366;51.980;5.856;2022-08-01T05:02:33;3.70;;;3.40;;
67528;SDS011;54366;51.980;5.856;2022-08-01T05:04:59;3.78;;;3.40;;
67528;SDS011;54366;51.980;5.856;2022-08-01T05:07:26;3.65;;;3.05;;
67528;SDS011;54366;51.980;5.856;2022-08-01T05:09:52;4.22;;;3.35;;
67528;SDS011;54366;51.980;5.856;2022-08-01T05:12:18;3.78;;;3.42;;
67528;SDS011;54366;51.980;5.856;2022-08-01T05:14:44;5.55;;;4.95;;
67528;SDS011;54366;51.980;5.856;2022-08-01T05:17:11;5.82;;;4.68;;
67528;SDS011;54366;51.980;5.856;2022-08-01T05:19:38;4.43;;;4.03;;
67528;SDS011;54366;51.980;5.856;2022-08-01T05:22:06;4.60;;;4.20;;
67528;SDS011;54366;51.980;5.856;2022-08-01T05:24:34;4.15;;;3.75;;
67528;SDS011;54366;51.980;5.856;2022-08-01T05:27:03;3.28;;;2.97;;
67528;SDS011;54366;51.980;5.856;2022-08-01T05:29:30;4.70;;;4.30;;
67528;SDS011;54366;51.980;5.856;2022-08-01T05:31:56;3.47;;;3.17;;
67528;SDS011;54366;51.980;5.856;2022-08-01T05:34:23;3.67;;;3.38;;
67528;SDS011;54366;51.980;5.856;2022-08-01T05:36:49;4.32;;;3.42;;
67528;SDS011;54366;51.980;5.856;2022-08-01T05:39:15;4.03;;;3.38;;
67528;SDS011;54366;51.980;5.856;2022-08-01T05:41:42;4.35;;;3.80;;
67528;SDS011;54366;51.980;5.856;2022-08-01T05:44:08;3.10;;;2.90;;
67528;SDS011;54366;51.980;5.856;2022-08-01T05:46:35;3.42;;;2.90;;
67528;SDS011;54366;51.980;5.856;2022-08-01T05:49:02;5.07;;;4.57;;
67528;SDS011;54366;51.980;5.856;2022-08-01T05:51:30;3.67;;;3.35;;
67528;SDS011;54366;51.980;5.856;2022-08-01T05:53:57;3.53;;;3.22;;
67528;SDS011;54366;51.980;5.856;2022-08-01T05:56:23;4.47;;;3.72;;
67528;SDS011;54366;51.980;5.856;2022-08-01T05:58:49;3.53;;;3.22;;
67528;SDS011;54366;51.980;5.856;2022-08-01T06:01:17;2.42;;;2.25;;
67528;SDS011;54366;51.980;5.856;2022-08-01T06:03:43;3.00;;;2.33;;
67528;SDS011;54366;51.980;5.856;2022-08-01T06:06:10;2.38;;;2.13;;
67528;SDS011;54366;51.980;5.856;2022-08-01T06:08:37;1.88;;;1.73;;
67528;SDS011;54366;51.980;5.856;2022-08-01T06:11:03;1.50;;;1.40;;
67528;SDS011;54366;51.980;5.856;2022-08-01T06:13:29;1.65;;;1.25;;
67528;SDS011;54366;51.980;5.856;2022-08-01T06:15:55;1.60;;;1.23;;
67528;SDS011;54366;51.980;5.856;2022-08-01T06:18:22;1.27;;;0.82;;
67528;SDS011;54366;51.980;5.856;2022-08-01T06:20:48;1.55;;;1.30;;
67528;SDS011;54366;51.980;5.856;2022-08-01T06:23:14;0.52;;;0.52;;
67528;SDS011;54366;51.980;5.856;2022-08-01T06:25:42;1.17;;;1.10;;
67528;SDS011;54366;51.980;5.856;2022-08-01T06:28:08;1.08;;;0.80;;
67528;SDS011;54366;51.980;5.856;2022-08-01T06:30:35;1.52;;;0.90;;
67528;SDS011;54366;51.980;5.856;2022-08-01T06:33:01;1.05;;;0.70;;
67528;SDS011;54366;51.980;5.856;2022-08-01T06:35:28;1.13;;;0.70;;
67528;SDS011;54366;51.980;5.856;2022-08-01T06:37:55;0.60;;;0.60;;
67528;SDS011;54366;51.980;5.856;2022-08-01T06:40:22;0.95;;;0.50;;
67528;SDS011;54366;51.980;5.856;2022-08-01T06:42:49;0.60;;;0.52;;
67528;SDS011;54366;51.980;5.856;2022-08-01T06:45:16;0.30;;;0.30;;
67528;SDS011;54366;51.980;5.856;2022-08-01T06:47:43;1.02;;;0.38;;
67528;SDS011;54366;51.980;5.856;2022-08-01T06:50:10;0.85;;;0.43;;
67528;SDS011;54366;51.980;5.856;2022-08-01T06:52:37;0.90;;;0.45;;
67528;SDS011;54366;51.980;5.856;2022-08-01T06:55:03;0.50;;;0.47;;
67528;SDS011;54366;51.980;5.856;2022-08-01T06:57:30;0.35;;;0.35;;
67528;SDS011;54366;51.980;5.856;2022-08-01T06:59:56;0.28;;;0.28;;
67528;SDS011;54366;51.980;5.856;2022-08-01T07:02:23;0.70;;;0.50;;
67528;SDS011;54366;51.980;5.856;2022-08-01T07:04:49;1.05;;;0.80;;
67528;SDS011;54366;51.980;5.856;2022-08-01T07:07:15;0.75;;;0.55;;
67528;SDS011;54366;51.980;5.856;2022-08-01T07:09:41;0.93;;;0.40;;
67528;SDS011;54366;51.980;5.856;2022-08-01T07:12:08;0.90;;;0.47;;
67528;SDS011;54366;51.980;5.856;2022-08-01T07:14:35;1.08;;;0.60;;
67528;SDS011;54366;51.980;5.856;2022-08-01T07:17:01;1.02;;;0.60;;
67528;SDS011;54366;51.980;5.856;2022-08-01T07:19:27;1.27;;;0.70;;
67528;SDS011;54366;51.980;5.856;2022-08-01T07:21:53;0.90;;;0.60;;
67528;SDS011;54366;51.980;5.856;2022-08-01T07:24:20;2.13;;;0.55;;
67528;SDS011;54366;51.980;5.856;2022-08-01T07:26:47;0.60;;;0.60;;
67528;SDS011;54366;51.980;5.856;2022-08-01T07:29:14;0.60;;;0.50;;
67528;SDS011;54366;51.980;5.856;2022-08-01T07:31:40;0.85;;;0.50;;
67528;SDS011;54366;51.980;5.856;2022-08-01T07:34:07;0.50;;;0.40;;
67528;SDS011;54366;51.980;5.856;2022-08-01T07:36:33;0.93;;;0.60;;
67528;SDS011;54366;51.980;5.856;2022-08-01T07:39:00;0.88;;;0.70;;
67528;SDS011;54366;51.980;5.856;2022-08-01T07:41:26;0.75;;;0.60;;
67528;SDS011;54366;51.980;5.856;2022-08-01T07:43:53;0.98;;;0.60;;
67528;SDS011;54366;51.980;5.856;2022-08-01T07:46:19;0.50;;;0.40;;
67528;SDS011;54366;51.980;5.856;2022-08-01T07:48:46;1.13;;;0.50;;
67528;SDS011;54366;51.980;5.856;2022-08-01T07:51:12;0.75;;;0.50;;
67528;SDS011;54366;51.980;5.856;2022-08-01T07:53:38;0.80;;;0.50;;
67528;SDS011;54366;51.980;5.856;2022-08-01T07:56:04;1.27;;;0.50;;
67528;SDS011;54366;51.980;5.856;2022-08-01T07:58:32;0.47;;;0.30;;
67528;SDS011;54366;51.980;5.856;2022-08-01T08:00:59;1.48;;;0.73;;
67528;SDS011;54366;51.980;5.856;2022-08-01T08:03:25;0.88;;;0.43;;
67528;SDS011;54366;51.980;5.856;2022-08-01T08:05:52;0.70;;;0.40;;
67528;SDS011;54366;51.980;5.856;2022-08-01T08:08:18;0.95;;;0.47;;
67528;SDS011;54366;51.980;5.856;2022-08-01T08:10:44;1.15;;;0.50;;
67528;SDS011;54366;51.980;5.856;2022-08-01T08:13:11;0.70;;;0.50;;
67528;SDS011;54366;51.980;5.856;2022-08-01T08:15:37;0.70;;;0.40;;
67528;SDS011;54366;51.980;5.856;2022-08-01T08:18:04;0.63;;;0.60;;
67528;SDS011;54366;51.980;5.856;2022-08-01T08:20:30;0.40;;;0.40;;
67528;SDS011;54366;51.980;5.856;2022-08-01T08:22:56;0.88;;;0.55;;
67528;SDS011;54366;51.980;5.856;2022-08-01T08:25:25;0.82;;;0.60;;
67528;SDS011;54366;51.980;5.856;2022-08-01T08:27:52;1.60;;;0.47;;
67528;SDS011;54366;51.980;5.856;2022-08-01T08:30:18;0.88;;;0.60;;
67528;SDS011;54366;51.980;5.856;2022-08-01T08:32:45;0.75;;;0.50;;
67528;SDS011;54366;51.980;5.856;2022-08-01T08:35:11;0.68;;;0.68;;
67528;SDS011;54366;51.980;5.856;2022-08-01T08:37:38;1.05;;;0.85;;
67528;SDS011;54366;51.980;5.856;2022-08-01T08:40:04;0.80;;;0.50;;
67528;SDS011;54366;51.980;5.856;2022-08-01T08:42:32;1.17;;;0.57;;
67528;SDS011;54366;51.980;5.856;2022-08-01T08:44:59;0.45;;;0.40;;
67528;SDS011;54366;51.980;5.856;2022-08-01T08:47:25;2.05;;;0.40;;
67528;SDS011;54366;51.980;5.856;2022-08-01T08:49:55;0.40;;;0.40;;
67528;SDS011;54366;51.980;5.856;2022-08-01T08:52:22;2.60;;;2.40;;
67528;SDS011;54366;51.980;5.856;2022-08-01T08:54:50;1.30;;;1.20;;
67528;SDS011;54366;51.980;5.856;2022-08-01T08:57:18;1.05;;;0.88;;
67528;SDS011;54366;51.980;5.856;2022-08-01T08:59:46;0.90;;;0.77;;
67528;SDS011;54366;51.980;5.856;2022-08-01T09:02:13;2.75;;;0.70;;
67528;SDS011;54366;51.980;5.856;2022-08-01T09:04:39;2.65;;;0.80;;
67528;SDS011;54366;51.980;5.856;2022-08-01T09:07:06;2.22;;;1.02;;
67528;SDS011;54366;51.980;5.856;2022-08-01T09:09:34;1.27;;;1.10;;
67528;SDS011;54366;51.980;5.856;2022-08-01T09:12:00;2.15;;;0.82;;
67528;SDS011;54366;51.980;5.856;2022-08-01T09:14:26;1.60;;;0.80;;
67528;SDS011;54366;51.980;5.856;2022-08-01T09:17:00;2.10;;;0.70;;
67528;SDS011;54366;51.980;5.856;2022-08-01T09:19:36;1.00;;;0.70;;
67528;SDS011;54366;51.980;5.856;2022-08-01T09:22:05;2.33;;;0.85;;
67528;SDS011;54366;51.980;5.856;2022-08-01T09:24:33;1.85;;;0.77;;
67528;SDS011;54366;51.980;5.856;2022-08-01T09:27:00;1.35;;;0.80;;
67528;SDS011;54366;51.980;5.856;2022-08-01T09:29:40;1.67;;;0.93;;
67528;SDS011;54366;51.980;5.856;2022-08-01T09:32:06;1.15;;;0.80;;
67528;SDS011;54366;51.980;5.856;2022-08-01T09:34:32;1.85;;;1.20;;
67528;SDS011;54366;51.980;5.856;2022-08-01T09:36:59;2.42;;;1.48;;
67528;SDS011;54366;51.980;5.856;2022-08-01T09:39:31;2.38;;;1.13;;
67528;SDS011;54366;51.980;5.856;2022-08-01T09:42:00;1.73;;;0.93;;
67528;SDS011;54366;51.980;5.856;2022-08-01T09:47:11;2.47;;;1.10;;
67528;SDS011;54366;51.980;5.856;2022-08-01T09:49:39;1.00;;;0.70;;
67528;SDS011;54366;51.980;5.856;2022-08-01T09:52:25;2.45;;;1.20;;
67528;SDS011;54366;51.980;5.856;2022-08-01T09:54:56;1.65;;;1.00;;
67528;SDS011;54366;51.980;5.856;2022-08-01T09:57:24;2.97;;;1.33;;
67528;SDS011;54366;51.980;5.856;2022-08-01T09:59:52;3.08;;;1.50;;
67528;SDS011;54366;51.980;5.856;2022-08-01T10:02:36;2.78;;;1.35;;
67528;SDS011;54366;51.980;5.856;2022-08-01T10:05:05;3.53;;;2.08;;
67528;SDS011;54366;51.980;5.856;2022-08-01T10:07:33;3.17;;;1.70;;
67528;SDS011;54366;51.980;5.856;2022-08-01T10:10:13;2.33;;;1.65;;
67528;SDS011;54366;51.980;5.856;2022-08-01T10:12:41;4.35;;;1.73;;
67528;SDS011;54366;51.980;5.856;2022-08-01T10:15:08;3.25;;;1.67;;
67528;SDS011;54366;51.980;5.856;2022-08-01T10:17:36;5.50;;;2.17;;
67528;SDS011;54366;51.980;5.856;2022-08-01T10:20:05;2.60;;;1.60;;
67528;SDS011;54366;51.980;5.856;2022-08-01T10:22:33;4.60;;;2.28;;
67528;SDS011;54366;51.980;5.856;2022-08-01T10:25:02;3.78;;;2.10;;
67528;SDS011;54366;51.980;5.856;2022-08-01T10:27:29;2.80;;;1.67;;
67528;SDS011;54366;51.980;5.856;2022-08-01T10:30:02;6.28;;;2.40;;
67528;SDS011;54366;51.980;5.856;2022-08-01T10:32:30;3.33;;;1.75;;
67528;SDS011;54366;51.980;5.856;2022-08-01T10:34:57;3.92;;;1.88;;
67528;SDS011;54366;51.980;5.856;2022-08-01T10:37:24;3.50;;;2.20;;
67528;SDS011;54366;51.980;5.856;2022-08-01T10:39:51;4.43;;;2.00;;
67528;SDS011;54366;51.980;5.856;2022-08-01T10:42:18;4.93;;;2.05;;
67528;SDS011;54366;51.980;5.856;2022-08-01T10:44:45;7.55;;;2.38;;
67528;SDS011;54366;51.980;5.856;2022-08-01T10:47:21;3.60;;;2.17;;
67528;SDS011;54366;51.980;5.856;2022-08-01T10:50:04;4.20;;;2.00;;
67528;SDS011;54366;51.980;5.856;2022-08-01T10:52:39;4.00;;;1.65;;
67528;SDS011;54366;51.980;5.856;2022-08-01T10:55:06;3.92;;;1.60;;
67528;SDS011;54366;51.980;5.856;2022-08-01T10:57:42;3.80;;;1.90;;
67528;SDS011;54366;51.980;5.856;2022-08-01T11:00:18;3.45;;;1.70;;
67528;SDS011;54366;51.980;5.856;2022-08-01T11:05:22;3.28;;;1.38;;
67528;SDS011;54366;51.980;5.856;2022-08-01T11:07:53;2.45;;;1.50;;
67528;SDS011;54366;51.980;5.856;2022-08-01T11:10:33;3.35;;;1.83;;
67528;SDS011;54366;51.980;5.856;2022-08-01T11:13:04;4.87;;;1.80;;
67528;SDS011;54366;51.980;5.856;2022-08-01T11:15:33;3.75;;;1.65;;
67528;SDS011;54366;51.980;5.856;2022-08-01T11:18:29;4.07;;;1.98;;
67528;SDS011;54366;51.980;5.856;2022-08-01T11:20:59;2.53;;;1.70;;
67528;SDS011;54366;51.980;5.856;2022-08-01T11:23:28;3.45;;;1.40;;
67528;SDS011;54366;51.980;5.856;2022-08-01T11:28:22;3.60;;;1.48;;
67528;SDS011;54366;51.980;5.856;2022-08-01T11:30:50;4.47;;;1.52;;
67528;SDS011;54366;51.980;5.856;2022-08-01T11:38:38;3.38;;;1.20;;
67528;SDS011;54366;51.980;5.856;2022-08-01T11:41:16;3.78;;;1.60;;
67528;SDS011;54366;51.980;5.856;2022-08-01T11:43:57;4.03;;;1.60;;
67528;SDS011;54366;51.980;5.856;2022-08-01T11:52:04;2.80;;;1.40;;
67528;SDS011;54366;51.980;5.856;2022-08-01T11:54:38;3.60;;;1.40;;
67528;SDS011;54366;51.980;5.856;2022-08-01T11:57:06;2.85;;;1.38;;
67528;SDS011;54366;51.980;5.856;2022-08-01T11:59:41;3.22;;;1.40;;
67528;SDS011;54366;51.980;5.856;2022-08-01T12:04:46;4.43;;;1.60;;
67528;SDS011;54366;51.980;5.856;2022-08-01T12:07:14;4.85;;;1.77;;
67528;SDS011;54366;51.980;5.856;2022-08-01T12:09:41;6.30;;;1.60;;
67528;SDS011;54366;51.980;5.856;2022-08-01T12:12:08;3.92;;;1.67;;
67528;SDS011;54366;51.980;5.856;2022-08-01T12:14:35;4.65;;;1.65;;
67528;SDS011;54366;51.980;5.856;2022-08-01T12:17:01;2.20;;;1.25;;
67528;SDS011;54366;51.980;5.856;2022-08-01T12:19:28;4.43;;;1.70;;
67528;SDS011;54366;51.980;5.856;2022-08-01T12:22:11;5.47;;;1.50;;
67528;SDS011;54366;51.980;5.856;2022-08-01T12:24:38;3.78;;;1.50;;
67528;SDS011;54366;51.980;5.856;2022-08-01T12:27:07;3.30;;;1.27;;
67528;SDS011;54366;51.980;5.856;2022-08-01T12:29:36;4.32;;;1.38;;
67528;SDS011;54366;51.980;5.856;2022-08-01T12:32:04;2.75;;;1.20;;
67528;SDS011;54366;51.980;5.856;2022-08-01T12:34:46;4.25;;;1.55;;
67528;SDS011;54366;51.980;5.856;2022-08-01T12:37:12;3.05;;;1.50;;
67528;SDS011;54366;51.980;5.856;2022-08-01T12:39:38;5.03;;;1.17;;
67528;SDS011;54366;51.980;5.856;2022-08-01T12:42:07;2.40;;;1.05;;
67528;SDS011;54366;51.980;5.856;2022-08-01T12:44:36;3.13;;;1.10;;
67528;SDS011;54366;51.980;5.856;2022-08-01T12:47:04;2.50;;;1.20;;
67528;SDS011;54366;51.980;5.856;2022-08-01T12:49:32;5.03;;;1.70;;
67528;SDS011;54366;51.980;5.856;2022-08-01T12:51:59;5.63;;;1.48;;
67528;SDS011;54366;51.980;5.856;2022-08-01T12:54:25;3.45;;;1.00;;
67528;SDS011;54366;51.980;5.856;2022-08-01T12:56:52;3.75;;;1.00;;
67528;SDS011;54366;51.980;5.856;2022-08-01T12:59:19;4.63;;;1.23;;
67528;SDS011;54366;51.980;5.856;2022-08-01T13:01:55;2.17;;;1.10;;
67528;SDS011;54366;51.980;5.856;2022-08-01T13:04:22;3.38;;;1.40;;
67528;SDS011;54366;51.980;5.856;2022-08-01T13:06:52;3.83;;;1.40;;
67528;SDS011;54366;51.980;5.856;2022-08-01T13:09:19;2.50;;;0.93;;
67528;SDS011;54366;51.980;5.856;2022-08-01T13:11:45;3.38;;;1.20;;
67528;SDS011;54366;51.980;5.856;2022-08-01T13:14:28;2.22;;;1.10;;
67528;SDS011;54366;51.980;5.856;2022-08-01T13:16:55;3.08;;;1.20;;
67528;SDS011;54366;51.980;5.856;2022-08-01T13:19:27;3.88;;;0.90;;
67528;SDS011;54366;51.980;5.856;2022-08-01T13:22:08;3.85;;;1.48;;
67528;SDS011;54366;51.980;5.856;2022-08-01T13:24:34;2.70;;;1.15;;
67528;SDS011;54366;51.980;5.856;2022-08-01T13:27:01;4.32;;;1.10;;
67528;SDS011;54366;51.980;5.856;2022-08-01T13:29:33;3.45;;;1.30;;
67528;SDS011;54366;51.980;5.856;2022-08-01T13:32:12;3.08;;;1.15;;
67528;SDS011;54366;51.980;5.856;2022-08-01T13:34:43;2.90;;;1.05;;
67528;SDS011;54366;51.980;5.856;2022-08-01T13:37:09;3.40;;;1.40;;
67528;SDS011;54366;51.980;5.856;2022-08-01T13:39:36;2.88;;;1.17;;
67528;SDS011;54366;51.980;5.856;2022-08-01T13:42:14;6.15;;;1.58;;
67528;SDS011;54366;51.980;5.856;2022-08-01T13:44:41;5.63;;;1.30;;
67528;SDS011;54366;51.980;5.856;2022-08-01T13:47:11;3.25;;;1.15;;
67528;SDS011;54366;51.980;5.856;2022-08-01T13:49:38;4.65;;;1.20;;
67528;SDS011;54366;51.980;5.856;2022-08-01T13:52:04;3.70;;;1.30;;
67528;SDS011;54366;51.980;5.856;2022-08-01T13:54:34;3.40;;;1.02;;
67528;SDS011;54366;51.980;5.856;2022-08-01T13:57:00;2.00;;;0.80;;
67528;SDS011;54366;51.980;5.856;2022-08-01T13:59:26;2.25;;;0.90;;
67528;SDS011;54366;51.980;5.856;2022-08-01T14:01:53;2.80;;;0.98;;
67528;SDS011;54366;51.980;5.856;2022-08-01T14:04:19;2.20;;;1.02;;
67528;SDS011;54366;51.980;5.856;2022-08-01T14:06:46;2.30;;;0.90;;
67528;SDS011;54366;51.980;5.856;2022-08-01T14:09:13;3.08;;;0.98;;
67528;SDS011;54366;51.980;5.856;2022-08-01T14:11:42;3.65;;;1.10;;
67528;SDS011;54366;51.980;5.856;2022-08-01T14:14:08;2.63;;;1.08;;
67528;SDS011;54366;51.980;5.856;2022-08-01T14:16:34;2.83;;;0.80;;
67528;SDS011;54366;51.980;5.856;2022-08-01T14:19:03;1.50;;;1.00;;
67528;SDS011;54366;51.980;5.856;2022-08-01T14:21:29;1.90;;;0.93;;
67528;SDS011;54366;51.980;5.856;2022-08-01T14:23:56;1.40;;;0.88;;
67528;SDS011;54366;51.980;5.856;2022-08-01T14:26:23;1.98;;;0.98;;
67528;SDS011;54366;51.980;5.856;2022-08-01T14:28:49;2.95;;;1.08;;
67528;SDS011;54366;51.980;5.856;2022-08-01T14:31:15;2.38;;;0.98;;
67528;SDS011;54366;51.980;5.856;2022-08-01T14:33:42;1.10;;;0.52;;
67528;SDS011;54366;51.980;5.856;2022-08-01T14:36:08;2.75;;;1.00;;
67528;SDS011;54366;51.980;5.856;2022-08-01T14:38:34;1.45;;;0.60;;
67528;SDS011;54366;51.980;5.856;2022-08-01T14:41:00;1.80;;;0.60;;
67528;SDS011;54366;51.980;5.856;2022-08-01T14:43:28;0.70;;;0.32;;
67528;SDS011;54366;51.980;5.856;2022-08-01T14:45:57;1.13;;;0.40;;
67528;SDS011;54366;51.980;5.856;2022-08-01T14:48:23;1.70;;;0.90;;
67528;SDS011;54366;51.980;5.856;2022-08-01T14:50:49;1.42;;;0.50;;
67528;SDS011;54366;51.980;5.856;2022-08-01T14:53:16;1.50;;;0.50;;
67528;SDS011;54366;51.980;5.856;2022-08-01T14:55:42;1.77;;;0.57;;
67528;SDS011;54366;51.980;5.856;2022-08-01T14:58:09;1.80;;;0.50;;
67528;SDS011;54366;51.980;5.856;2022-08-01T15:00:35;1.13;;;0.50;;
67528;SDS011;54366;51.980;5.856;2022-08-01T15:03:01;2.22;;;0.77;;
67528;SDS011;54366;51.980;5.856;2022-08-01T15:05:27;1.70;;;0.70;;
67528;SDS011;54366;51.980;5.856;2022-08-01T15:07:54;1.80;;;0.68;;
67528;SDS011;54366;51.980;5.856;2022-08-01T15:10:20;1.50;;;0.60;;
67528;SDS011;54366;51.980;5.856;2022-08-01T15:12:48;2.17;;;0.85;;
67528;SDS011;54366;51.980;5.856;2022-08-01T15:15:14;1.35;;;0.63;;
67528;SDS011;54366;51.980;5.856;2022-08-01T15:17:40;2.55;;;0.68;;
67528;SDS011;54366;51.980;5.856;2022-08-01T15:20:06;1.52;;;0.70;;
67528;SDS011;54366;51.980;5.856;2022-08-01T15:22:33;2.25;;;0.55;;
67528;SDS011;54366;51.980;5.856;2022-08-01T15:25:00;1.38;;;0.45;;
67528;SDS011;54366;51.980;5.856;2022-08-01T15:27:27;1.95;;;0.50;;